sensor_id;sensor_type;location;lat;lon;timestamp;pressure;altitude;pressure_sealevel;temperature;humidity
71770;BME280;66386;52.122;5.420;2023-12-20T00:01:24;101630.97;;;5.08;100.00
71770;BME280;66386;52.122;5.420;2023-12-20T00:03:50;101619.09;;;5.07;100.00
71770;BME280;66386;52.122;5.420;2023-12-20T00:06:17;101624.19;;;5.07;100.00
71770;BME280;66386;52.122;5.420;2023-12-20T00:08:44;101620.78;;;5.03;100.00
71770;BME280;66386;52.122;5.420;2023-12-20T00:11:10;101615.69;;;4.99;100.00
71770;BME280;66386;52.122;5.420;2023-12-20T00:13:37;101614.88;;;4.97;100.00
71770;BME280;66386;52.122;5.420;2023-12-20T00:16:03;101611.47;;;4.93;100.00
71770;BME280;66386;52.122;5.420;2023-12-20T00:18:30;101606.38;;;4.90;100.00
71770;BME280;66386;52.122;5.420;2023-12-20T00:23:29;101603.00;;;4.83;100.00
71770;BME280;66386;52.122;5.420;2023-12-20T00:25:56;101616.56;;;4.79;100.00
71770;BME280;66386;52.122;5.420;2023-12-20T00:28:22;101610.63;;;4.77;100.00
71770;BME280;66386;52.122;5.420;2023-12-20T00:30:49;101610.63;;;4.77;100.00
71770;BME280;66386;52.122;5.420;2023-12-20T00:33:16;101612.34;;;4.72;100.00
71770;BME280;66386;52.122;5.420;2023-12-20T00:35:42;101616.56;;;4.70;100.00
71770;BME280;66386;52.122;5.420;2023-12-20T00:38:09;101619.97;;;4.66;100.00
71770;BME280;66386;52.122;5.420;2023-12-20T00:40:36;101611.47;;;4.64;100.00
71770;BME280;66386;52.122;5.420;2023-12-20T00:43:03;101613.19;;;4.62;100.00
71770;BME280;66386;52.122;5.420;2023-12-20T00:45:29;101615.72;;;4.59;100.00
71770;BME280;66386;52.122;5.420;2023-12-20T00:47:56;101607.22;;;4.57;100.00
71770;BME280;66386;52.122;5.420;2023-12-20T00:50:22;101608.06;;;4.55;100.00
71770;BME280;66386;52.122;5.420;2023-12-20T00:52:52;101602.97;;;4.54;100.00
71770;BME280;66386;52.122;5.420;2023-12-20T00:55:18;101607.22;;;4.52;100.00
71770;BME280;66386;52.122;5.420;2023-12-20T00:57:45;101608.94;;;4.50;100.00
71770;BME280;66386;52.122;5.420;2023-12-20T01:00:13;101608.06;;;4.45;100.00
71770;BME280;66386;52.122;5.420;2023-12-20T01:02:40;101614.88;;;4.44;100.00
71770;BME280;66386;52.122;5.420;2023-12-20T01:05:06;101603.81;;;4.45;100.00
71770;BME280;66386;52.122;5.420;2023-12-20T01:07:35;101607.22;;;4.43;100.00
71770;BME280;66386;52.122;5.420;2023-12-20T01:10:02;101595.34;;;4.42;100.00
71770;BME280;66386;52.122;5.420;2023-12-20T01:12:29;101597.03;;;4.41;100.00
71770;BME280;66386;52.122;5.420;2023-12-20T01:14:55;101589.41;;;4.41;100.00
71770;BME280;66386;52.122;5.420;2023-12-20T01:17:22;101589.41;;;4.38;100.00
71770;BME280;66386;52.122;5.420;2023-12-20T01:19:48;101593.63;;;4.37;100.00
71770;BME280;66386;52.122;5.420;2023-12-20T01:22:15;101588.53;;;4.36;100.00
71770;BME280;66386;52.122;5.420;2023-12-20T01:24:41;101593.63;;;4.31;100.00
71770;BME280;66386;52.122;5.420;2023-12-20T01:27:09;101600.41;;;4.28;100.00
71770;BME280;66386;52.122;5.420;2023-12-20T01:29:35;101614.00;;;4.27;100.00
71770;BME280;66386;52.122;5.420;2023-12-20T01:32:02;101611.44;;;4.30;100.00
71770;BME280;66386;52.122;5.420;2023-12-20T01:34:28;101617.38;;;4.32;100.00
71770;BME280;66386;52.122;5.420;2023-12-20T01:36:55;101619.91;;;4.32;100.00
71770;BME280;66386;52.122;5.420;2023-12-20T01:39:22;101609.75;;;4.33;100.00
71770;BME280;66386;52.122;5.420;2023-12-20T01:41:55;101610.59;;;4.34;100.00
71770;BME280;66386;52.122;5.420;2023-12-20T01:44:21;101614.00;;;4.36;100.00
71770;BME280;66386;52.122;5.420;2023-12-20T01:46:48;101608.91;;;4.37;100.00
71770;BME280;66386;52.122;5.420;2023-12-20T01:49:15;101603.81;;;4.39;100.00
71770;BME280;66386;52.122;5.420;2023-12-20T01:51:43;101601.28;;;4.37;100.00
71770;BME280;66386;52.122;5.420;2023-12-20T01:54:10;101597.88;;;4.42;100.00
71770;BME280;66386;52.122;5.420;2023-12-20T01:56:37;101599.59;;;4.46;100.00
71770;BME280;66386;52.122;5.420;2023-12-20T01:59:04;101606.38;;;4.48;100.00
71770;BME280;66386;52.122;5.420;2023-12-20T02:01:32;101603.84;;;4.48;100.00
71770;BME280;66386;52.122;5.420;2023-12-20T02:03:59;101601.28;;;4.48;100.00
71770;BME280;66386;52.122;5.420;2023-12-20T02:06:29;101604.69;;;4.47;100.00
71770;BME280;66386;52.122;5.420;2023-12-20T02:08:58;101598.72;;;4.42;100.00
71770;BME280;66386;52.122;5.420;2023-12-20T02:11:25;101599.59;;;4.44;100.00
71770;BME280;66386;52.122;5.420;2023-12-20T02:13:53;101608.06;;;4.49;100.00
71770;BME280;66386;52.122;5.420;2023-12-20T02:16:20;101600.44;;;4.52;100.00
71770;BME280;66386;52.122;5.420;2023-12-20T02:18:47;101594.50;;;4.55;100.00
71770;BME280;66386;52.122;5.420;2023-12-20T02:21:14;101595.34;;;4.55;100.00
71770;BME280;66386;52.122;5.420;2023-12-20T02:23:41;101592.81;;;4.60;100.00
71770;BME280;66386;52.122;5.420;2023-12-20T02:26:08;101587.72;;;4.60;100.00
71770;BME280;66386;52.122;5.420;2023-12-20T02:28:35;101596.19;;;4.61;100.00
71770;BME280;66386;52.122;5.420;2023-12-20T02:31:01;101591.94;;;4.58;100.00
71770;BME280;66386;52.122;5.420;2023-12-20T02:33:28;101592.81;;;4.60;100.00
71770;BME280;66386;52.122;5.420;2023-12-20T02:35:54;101589.41;;;4.60;100.00
71770;BME280;66386;52.122;5.420;2023-12-20T02:38:21;101580.09;;;4.62;100.00
71770;BME280;66386;52.122;5.420;2023-12-20T02:40:48;101591.97;;;4.66;100.00
71770;BME280;66386;52.122;5.420;2023-12-20T02:43:15;101583.47;;;4.64;100.00
71770;BME280;66386;52.122;5.420;2023-12-20T02:45:42;101580.09;;;4.63;100.00
71770;BME280;66386;52.122;5.420;2023-12-20T02:48:09;101570.72;;;4.67;100.00
71770;BME280;66386;52.122;5.420;2023-12-20T02:50:36;101573.25;;;4.71;100.00
71770;BME280;66386;52.122;5.420;2023-12-20T02:53:02;101571.59;;;4.72;100.00
71770;BME280;66386;52.122;5.420;2023-12-20T02:55:29;101566.47;;;4.78;100.00
71770;BME280;66386;52.122;5.420;2023-12-20T02:57:55;101566.47;;;4.78;100.00
71770;BME280;66386;52.122;5.420;2023-12-20T03:00:22;101563.09;;;4.75;100.00
71770;BME280;66386;52.122;5.420;2023-12-20T03:02:48;101563.06;;;4.71;100.00
71770;BME280;66386;52.122;5.420;2023-12-20T03:05:15;101564.78;;;4.71;100.00
71770;BME280;66386;52.122;5.420;2023-12-20T03:07:42;101562.25;;;4.74;100.00
71770;BME280;66386;52.122;5.420;2023-12-20T03:10:09;101559.69;;;4.72;100.00
71770;BME280;66386;52.122;5.420;2023-12-20T03:12:46;101552.91;;;4.70;100.00
71770;BME280;66386;52.122;5.420;2023-12-20T03:15:12;101557.16;;;4.71;100.00
71770;BME280;66386;52.122;5.420;2023-12-20T03:17:39;101552.91;;;4.75;100.00
71770;BME280;66386;52.122;5.420;2023-12-20T03:20:06;101551.19;;;4.80;100.00
71770;BME280;66386;52.122;5.420;2023-12-20T03:22:33;101552.03;;;4.80;100.00
71770;BME280;66386;52.122;5.420;2023-12-20T03:25:00;101551.19;;;4.80;100.00
71770;BME280;66386;52.122;5.420;2023-12-20T03:27:27;101544.41;;;4.80;100.00
71770;BME280;66386;52.122;5.420;2023-12-20T03:29:53;101533.38;;;4.80;100.00
71770;BME280;66386;52.122;5.420;2023-12-20T03:32:20;101539.31;;;4.80;100.00
71770;BME280;66386;52.122;5.420;2023-12-20T03:34:46;101536.75;;;4.79;100.00
71770;BME280;66386;52.122;5.420;2023-12-20T03:37:15;101542.72;;;4.79;100.00
71770;BME280;66386;52.122;5.420;2023-12-20T03:39:41;101541.00;;;4.80;100.00
71770;BME280;66386;52.122;5.420;2023-12-20T03:42:08;101543.56;;;4.83;100.00
71770;BME280;66386;52.122;5.420;2023-12-20T03:44:38;101540.16;;;4.87;100.00
71770;BME280;66386;52.122;5.420;2023-12-20T03:47:05;101542.69;;;4.90;100.00
71770;BME280;66386;52.122;5.420;2023-12-20T03:49:32;101552.00;;;4.97;100.00
71770;BME280;66386;52.122;5.420;2023-12-20T03:51:59;101548.63;;;5.03;100.00
71770;BME280;66386;52.122;5.420;2023-12-20T03:54:25;101554.53;;;5.05;100.00
71770;BME280;66386;52.122;5.420;2023-12-20T03:56:52;101544.34;;;5.02;100.00
71770;BME280;66386;52.122;5.420;2023-12-20T04:01:48;101538.41;;;5.04;100.00
71770;BME280;66386;52.122;5.420;2023-12-20T04:04:14;101542.66;;;5.07;100.00
71770;BME280;66386;52.122;5.420;2023-12-20T04:06:41;101541.81;;;5.05;100.00
71770;BME280;66386;52.122;5.420;2023-12-20T04:09:08;101541.81;;;5.13;100.00
71770;BME280;66386;52.122;5.420;2023-12-20T04:11:38;101535.84;;;5.20;100.00
71770;BME280;66386;52.122;5.420;2023-12-20T04:14:04;101544.28;;;5.27;100.00
71770;BME280;66386;52.122;5.420;2023-12-20T04:16:31;101530.66;;;5.35;100.00
71770;BME280;66386;52.122;5.420;2023-12-20T04:18:58;101531.50;;;5.36;100.00
71770;BME280;66386;52.122;5.420;2023-12-20T04:21:24;101525.56;;;5.37;100.00
71770;BME280;66386;52.122;5.420;2023-12-20T04:23:51;101532.34;;;5.42;100.00
71770;BME280;66386;52.122;5.420;2023-12-20T04:26:17;101521.28;;;5.45;100.00
71770;BME280;66386;52.122;5.420;2023-12-20T04:28:44;101528.94;;;5.45;100.00
71770;BME280;66386;52.122;5.420;2023-12-20T04:31:10;101532.31;;;5.46;100.00
71770;BME280;66386;52.122;5.420;2023-12-20T04:33:37;101539.09;;;5.50;100.00
71770;BME280;66386;52.122;5.420;2023-12-20T04:36:03;101538.22;;;5.57;100.00
71770;BME280;66386;52.122;5.420;2023-12-20T04:38:30;101539.03;;;5.60;100.00
71770;BME280;66386;52.122;5.420;2023-12-20T04:40:57;101528.84;;;5.60;100.00
71770;BME280;66386;52.122;5.420;2023-12-20T04:43:23;101535.66;;;5.62;100.00
71770;BME280;66386;52.122;5.420;2023-12-20T04:45:50;101522.88;;;5.63;100.00
71770;BME280;66386;52.122;5.420;2023-12-20T04:48:16;101527.09;;;5.69;100.00
71770;BME280;66386;52.122;5.420;2023-12-20T04:50:43;101528.81;;;5.71;100.00
71770;BME280;66386;52.122;5.420;2023-12-20T04:53:09;101522.84;;;5.74;100.00
71770;BME280;66386;52.122;5.420;2023-12-20T04:55:36;101515.19;;;5.74;100.00
71770;BME280;66386;52.122;5.420;2023-12-20T04:58:03;101525.41;;;5.74;100.00
71770;BME280;66386;52.122;5.420;2023-12-20T05:00:29;101515.19;;;5.74;100.00
71770;BME280;66386;52.122;5.420;2023-12-20T05:02:56;101504.97;;;5.71;100.00
71770;BME280;66386;52.122;5.420;2023-12-20T05:05:23;101505.84;;;5.73;100.00
71770;BME280;66386;52.122;5.420;2023-12-20T05:07:49;101509.19;;;5.76;100.00
71770;BME280;66386;52.122;5.420;2023-12-20T05:13:01;101519.41;;;5.81;100.00
71770;BME280;66386;52.122;5.420;2023-12-20T05:15:27;101511.75;;;5.83;100.00
71770;BME280;66386;52.122;5.420;2023-12-20T05:17:54;101513.41;;;5.85;100.00
71770;BME280;66386;52.122;5.420;2023-12-20T05:20:20;101515.94;;;5.85;100.00
71770;BME280;66386;52.122;5.420;2023-12-20T05:22:47;101513.38;;;5.88;100.00
71770;BME280;66386;52.122;5.420;2023-12-20T05:25:14;101517.63;;;5.89;100.00
71770;BME280;66386;52.122;5.420;2023-12-20T05:27:41;101520.16;;;5.92;100.00
71770;BME280;66386;52.122;5.420;2023-12-20T05:30:08;101514.22;;;5.92;100.00
71770;BME280;66386;52.122;5.420;2023-12-20T05:32:35;101518.47;;;5.93;100.00
71770;BME280;66386;52.122;5.420;2023-12-20T05:35:02;101514.19;;;5.95;100.00
71770;BME280;66386;52.122;5.420;2023-12-20T05:37:29;101511.63;;;5.97;100.00
71770;BME280;66386;52.122;5.420;2023-12-20T05:39:56;101520.13;;;5.95;100.00
71770;BME280;66386;52.122;5.420;2023-12-20T05:42:22;101521.03;;;5.98;100.00
71770;BME280;66386;52.122;5.420;2023-12-20T05:44:49;101508.25;;;5.94;100.00
71770;BME280;66386;52.122;5.420;2023-12-20T05:47:18;101515.03;;;5.94;100.00
71770;BME280;66386;52.122;5.420;2023-12-20T05:49:45;101512.50;;;5.97;100.00
71770;BME280;66386;52.122;5.420;2023-12-20T05:52:12;101507.38;;;5.95;100.00
71770;BME280;66386;52.122;5.420;2023-12-20T05:54:38;101513.34;;;5.96;100.00
71770;BME280;66386;52.122;5.420;2023-12-20T05:57:05;101516.75;;;5.97;100.00
71770;BME280;66386;52.122;5.420;2023-12-20T05:59:31;101509.09;;;5.98;100.00
71770;BME280;66386;52.122;5.420;2023-12-20T06:01:58;101510.78;;;6.01;100.00
71770;BME280;66386;52.122;5.420;2023-12-20T06:04:24;101515.03;;;6.05;100.00
71770;BME280;66386;52.122;5.420;2023-12-20T06:06:51;101509.06;;;6.03;100.00
71770;BME280;66386;52.122;5.420;2023-12-20T06:09:18;101509.03;;;6.06;100.00
71770;BME280;66386;52.122;5.420;2023-12-20T06:11:44;101504.81;;;6.05;100.00
71770;BME280;66386;52.122;5.420;2023-12-20T06:14:11;101515.00;;;6.06;100.00
71770;BME280;66386;52.122;5.420;2023-12-20T06:16:37;101499.63;;;6.14;100.00
71770;BME280;66386;52.122;5.420;2023-12-20T06:19:04;101502.16;;;6.17;100.00
71770;BME280;66386;52.122;5.420;2023-12-20T06:21:30;101502.16;;;6.16;100.00
71770;BME280;66386;52.122;5.420;2023-12-20T06:23:59;101496.25;;;6.12;100.00
71770;BME280;66386;52.122;5.420;2023-12-20T06:26:25;101493.72;;;6.12;100.00
71770;BME280;66386;52.122;5.420;2023-12-20T06:28:52;101492.00;;;6.13;100.00
71770;BME280;66386;52.122;5.420;2023-12-20T06:31:18;101504.72;;;6.14;100.00
71770;BME280;66386;52.122;5.420;2023-12-20T06:33:45;101503.84;;;6.18;100.00
71770;BME280;66386;52.122;5.420;2023-12-20T06:36:12;101499.63;;;6.16;100.00
71770;BME280;66386;52.122;5.420;2023-12-20T06:38:42;101497.09;;;6.13;100.00
71770;BME280;66386;52.122;5.420;2023-12-20T06:41:08;101501.34;;;6.15;100.00
71770;BME280;66386;52.122;5.420;2023-12-20T06:43:35;101497.91;;;6.16;100.00
71770;BME280;66386;52.122;5.420;2023-12-20T06:46:15;101498.75;;;6.18;100.00
71770;BME280;66386;52.122;5.420;2023-12-20T06:48:41;101489.34;;;6.23;100.00
71770;BME280;66386;52.122;5.420;2023-12-20T06:51:12;101489.31;;;6.25;100.00
71770;BME280;66386;52.122;5.420;2023-12-20T06:53:39;101479.13;;;6.26;100.00
71770;BME280;66386;52.122;5.420;2023-12-20T06:56:05;101474.91;;;6.22;100.00
71770;BME280;66386;52.122;5.420;2023-12-20T06:58:33;101485.13;;;6.22;100.00
71770;BME280;66386;52.122;5.420;2023-12-20T07:01:00;101480.81;;;6.24;100.00
71770;BME280;66386;52.122;5.420;2023-12-20T07:03:27;101476.56;;;6.25;100.00
71770;BME280;66386;52.122;5.420;2023-12-20T07:05:53;101478.19;;;6.32;100.00
71770;BME280;66386;52.122;5.420;2023-12-20T07:08:20;101484.19;;;6.33;100.00
71770;BME280;66386;52.122;5.420;2023-12-20T07:10:46;101485.00;;;6.35;100.00
71770;BME280;66386;52.122;5.420;2023-12-20T07:13:13;101490.94;;;6.37;100.00
71770;BME280;66386;52.122;5.420;2023-12-20T07:15:40;101484.97;;;6.36;100.00
71770;BME280;66386;52.122;5.420;2023-12-20T07:18:07;101481.56;;;6.39;100.00
71770;BME280;66386;52.122;5.420;2023-12-20T07:20:33;101476.44;;;6.39;100.00
71770;BME280;66386;52.122;5.420;2023-12-20T07:23:00;101473.06;;;6.37;100.00
71770;BME280;66386;52.122;5.420;2023-12-20T07:25:26;101481.56;;;6.39;100.00
71770;BME280;66386;52.122;5.420;2023-12-20T07:27:53;101467.09;;;6.38;100.00
71770;BME280;66386;52.122;5.420;2023-12-20T07:30:20;101467.06;;;6.39;100.00
71770;BME280;66386;52.122;5.420;2023-12-20T07:32:46;101480.72;;;6.40;100.00
71770;BME280;66386;52.122;5.420;2023-12-20T07:35:14;101480.69;;;6.43;100.00
71770;BME280;66386;52.122;5.420;2023-12-20T07:37:41;101454.28;;;6.44;100.00
71770;BME280;66386;52.122;5.420;2023-12-20T07:40:08;101450.88;;;6.43;100.00
71770;BME280;66386;52.122;5.420;2023-12-20T07:42:35;101459.38;;;6.45;100.00
71770;BME280;66386;52.122;5.420;2023-12-20T07:45:02;101462.75;;;6.46;100.00
71770;BME280;66386;52.122;5.420;2023-12-20T07:47:28;101472.13;;;6.47;100.00
71770;BME280;66386;52.122;5.420;2023-12-20T07:49:55;101477.19;;;6.52;100.00
71770;BME280;66386;52.122;5.420;2023-12-20T07:52:22;101476.31;;;6.54;100.00
71770;BME280;66386;52.122;5.420;2023-12-20T07:54:49;101487.38;;;6.55;100.00
71770;BME280;66386;52.122;5.420;2023-12-20T07:57:16;101479.72;;;6.53;100.00
71770;BME280;66386;52.122;5.420;2023-12-20T07:59:42;101484.84;;;6.53;100.00
71770;BME280;66386;52.122;5.420;2023-12-20T08:02:10;101497.59;;;6.53;100.00
71770;BME280;66386;52.122;5.420;2023-12-20T08:04:37;101506.13;;;6.52;100.00
71770;BME280;66386;52.122;5.420;2023-12-20T08:07:04;101496.72;;;6.57;100.00
71770;BME280;66386;52.122;5.420;2023-12-20T08:09:30;101509.50;;;6.56;100.00
71770;BME280;66386;52.122;5.420;2023-12-20T08:11:58;101511.22;;;6.54;100.00
71770;BME280;66386;52.122;5.420;2023-12-20T08:14:25;101498.44;;;6.54;100.00
71770;BME280;66386;52.122;5.420;2023-12-20T08:16:52;101509.47;;;6.60;100.00
71770;BME280;66386;52.122;5.420;2023-12-20T08:19:19;101505.19;;;6.61;100.00
71770;BME280;66386;52.122;5.420;2023-12-20T08:21:45;101493.28;;;6.61;100.00
71770;BME280;66386;52.122;5.420;2023-12-20T08:24:12;101497.53;;;6.59;100.00
71770;BME280;66386;52.122;5.420;2023-12-20T08:26:38;101497.53;;;6.59;100.00
71770;BME280;66386;52.122;5.420;2023-12-20T08:29:05;101494.13;;;6.62;100.00
71770;BME280;66386;52.122;5.420;2023-12-20T08:31:31;101488.16;;;6.63;100.00
71770;BME280;66386;52.122;5.420;2023-12-20T08:33:58;101482.19;;;6.62;100.00
71770;BME280;66386;52.122;5.420;2023-12-20T08:36:25;101491.53;;;6.65;100.00
71770;BME280;66386;52.122;5.420;2023-12-20T08:38:51;101489.78;;;6.70;100.00
71770;BME280;66386;52.122;5.420;2023-12-20T08:41:18;101486.31;;;6.73;100.00
71770;BME280;66386;52.122;5.420;2023-12-20T08:43:45;101488.88;;;6.73;100.00
71770;BME280;66386;52.122;5.420;2023-12-20T08:46:11;101491.38;;;6.77;100.00
71770;BME280;66386;52.122;5.420;2023-12-20T08:48:38;101482.00;;;6.81;100.00
71770;BME280;66386;52.122;5.420;2023-12-20T08:51:05;101487.09;;;6.81;100.00
71770;BME280;66386;52.122;5.420;2023-12-20T08:53:36;101477.72;;;6.81;100.00
71770;BME280;66386;52.122;5.420;2023-12-20T08:56:03;101479.47;;;6.78;100.00
71770;BME280;66386;52.122;5.420;2023-12-20T08:58:29;101485.44;;;6.77;100.00
71770;BME280;66386;52.122;5.420;2023-12-20T09:00:56;101493.13;;;6.75;100.00
71770;BME280;66386;52.122;5.420;2023-12-20T09:03:24;101482.94;;;6.72;100.00
71770;BME280;66386;52.122;5.420;2023-12-20T09:05:51;101476.16;;;6.68;100.00
71770;BME280;66386;52.122;5.420;2023-12-20T09:08:17;101486.41;;;6.67;100.00
71770;BME280;66386;52.122;5.420;2023-12-20T09:10:44;101481.31;;;6.63;100.00
71770;BME280;66386;52.122;5.420;2023-12-20T09:13:11;101488.97;;;6.65;100.00
71770;BME280;66386;52.122;5.420;2023-12-20T09:15:38;101480.50;;;6.61;100.00
71770;BME280;66386;52.122;5.420;2023-12-20T09:18:04;101483.03;;;6.60;100.00
71770;BME280;66386;52.122;5.420;2023-12-20T09:20:31;101482.22;;;6.59;100.00
71770;BME280;66386;52.122;5.420;2023-12-20T09:22:59;101483.06;;;6.61;100.00
71770;BME280;66386;52.122;5.420;2023-12-20T09:25:26;101471.09;;;6.63;100.00
71770;BME280;66386;52.122;5.420;2023-12-20T09:27:53;101478.72;;;6.67;100.00
71770;BME280;66386;52.122;5.420;2023-12-20T09:30:20;101484.63;;;6.73;100.00
71770;BME280;66386;52.122;5.420;2023-12-20T09:32:54;101480.28;;;6.80;100.00
71770;BME280;66386;52.122;5.420;2023-12-20T09:35:21;101490.47;;;6.83;100.00
71770;BME280;66386;52.122;5.420;2023-12-20T09:37:48;101479.38;;;6.87;100.00
71770;BME280;66386;52.122;5.420;2023-12-20T09:40:18;101475.91;;;6.91;100.00
71770;BME280;66386;52.122;5.420;2023-12-20T09:42:53;101483.50;;;6.99;100.00
71770;BME280;66386;52.122;5.420;2023-12-20T09:45:23;101477.47;;;7.03;100.00
71770;BME280;66386;52.122;5.420;2023-12-20T09:47:53;101486.84;;;7.04;100.00
71770;BME280;66386;52.122;5.420;2023-12-20T09:50:21;101490.19;;;7.08;100.00
71770;BME280;66386;52.122;5.420;2023-12-20T09:52:52;101496.13;;;7.13;100.00
71770;BME280;66386;52.122;5.420;2023-12-20T09:55:20;101488.44;;;7.13;100.00
71770;BME280;66386;52.122;5.420;2023-12-20T09:57:49;101490.06;;;7.20;100.00
71770;BME280;66386;52.122;5.420;2023-12-20T10:00:16;101486.59;;;7.26;100.00
71770;BME280;66386;52.122;5.420;2023-12-20T10:03:00;101483.09;;;7.30;100.00
71770;BME280;66386;52.122;5.420;2023-12-20T10:05:27;101493.31;;;7.33;100.00
71770;BME280;66386;52.122;5.420;2023-12-20T10:07:54;101490.66;;;7.41;100.00
71770;BME280;66386;52.122;5.420;2023-12-20T10:10:22;101503.41;;;7.44;100.00
71770;BME280;66386;52.122;5.420;2023-12-20T10:13:04;101493.94;;;7.49;100.00
71770;BME280;66386;52.122;5.420;2023-12-20T10:15:33;101497.38;;;7.48;100.00
71770;BME280;66386;52.122;5.420;2023-12-20T10:18:00;101505.91;;;7.48;100.00
71770;BME280;66386;52.122;5.420;2023-12-20T10:20:28;101499.06;;;7.49;100.00
71770;BME280;66386;52.122;5.420;2023-12-20T10:22:56;101492.25;;;7.49;100.00
71770;BME280;66386;52.122;5.420;2023-12-20T10:25:24;101499.06;;;7.49;100.00
71770;BME280;66386;52.122;5.420;2023-12-20T10:28:08;101494.81;;;7.49;100.00
71770;BME280;66386;52.122;5.420;2023-12-20T10:30:35;101472.59;;;7.51;100.00
71770;BME280;66386;52.122;5.420;2023-12-20T10:33:02;101488.78;;;7.54;100.00
71770;BME280;66386;52.122;5.420;2023-12-20T10:35:29;101489.56;;;7.57;100.00
71770;BME280;66386;52.122;5.420;2023-12-20T10:37:56;101470.75;;;7.61;100.00
71770;BME280;66386;52.122;5.420;2023-12-20T10:40:23;101479.19;;;7.66;99.11
71770;BME280;66386;52.122;5.420;2023-12-20T10:42:51;101480.06;;;7.67;99.17
71770;BME280;66386;52.122;5.420;2023-12-20T10:45:18;101480.03;;;7.68;98.55
71770;BME280;66386;52.122;5.420;2023-12-20T10:47:46;101466.41;;;7.69;98.57
71770;BME280;66386;52.122;5.420;2023-12-20T10:50:14;101479.09;;;7.76;98.08
71770;BME280;66386;52.122;5.420;2023-12-20T10:52:42;101479.03;;;7.79;97.78
71770;BME280;66386;52.122;5.420;2023-12-20T10:55:10;101469.66;;;7.78;97.77
71770;BME280;66386;52.122;5.420;2023-12-20T10:57:38;101463.66;;;7.80;97.25
71770;BME280;66386;52.122;5.420;2023-12-20T11:00:06;101463.63;;;7.82;96.99
71770;BME280;66386;52.122;5.420;2023-12-20T11:02:39;101466.22;;;7.80;97.22
71770;BME280;66386;52.122;5.420;2023-12-20T11:08:01;101453.28;;;7.88;97.00
71770;BME280;66386;52.122;5.420;2023-12-20T11:10:42;101452.34;;;7.94;96.66
71770;BME280;66386;52.122;5.420;2023-12-20T11:13:22;101445.41;;;8.02;96.31
71770;BME280;66386;52.122;5.420;2023-12-20T11:15:50;101448.63;;;8.15;96.00
71770;BME280;66386;52.122;5.420;2023-12-20T11:18:16;101455.41;;;8.16;95.67
71770;BME280;66386;52.122;5.420;2023-12-20T11:20:43;101449.38;;;8.20;94.73
71770;BME280;66386;52.122;5.420;2023-12-20T11:23:09;101447.66;;;8.22;94.42
71770;BME280;66386;52.122;5.420;2023-12-20T11:25:46;101434.91;;;8.17;94.41
71770;BME280;66386;52.122;5.420;2023-12-20T11:28:14;101429.84;;;8.14;94.58
71770;BME280;66386;52.122;5.420;2023-12-20T11:30:48;101429.88;;;8.11;94.78
71770;BME280;66386;52.122;5.420;2023-12-20T11:33:16;101429.75;;;8.19;94.80
71770;BME280;66386;52.122;5.420;2023-12-20T11:35:45;101433.81;;;8.31;94.65
71770;BME280;66386;52.122;5.420;2023-12-20T11:38:13;101435.34;;;8.39;94.08
71770;BME280;66386;52.122;5.420;2023-12-20T11:40:44;101430.22;;;8.44;93.82
71770;BME280;66386;52.122;5.420;2023-12-20T11:43:10;101424.13;;;8.50;94.11
71770;BME280;66386;52.122;5.420;2023-12-20T11:45:49;101423.28;;;8.48;94.12
71770;BME280;66386;52.122;5.420;2023-12-20T11:48:17;101419.94;;;8.46;93.97
71770;BME280;66386;52.122;5.420;2023-12-20T11:50:44;101410.53;;;8.45;93.97
71770;BME280;66386;52.122;5.420;2023-12-20T11:53:11;101401.13;;;8.44;93.73
71770;BME280;66386;52.122;5.420;2023-12-20T11:55:37;101402.03;;;8.43;92.62
71770;BME280;66386;52.122;5.420;2023-12-20T11:58:04;101400.31;;;8.43;92.76
71770;BME280;66386;52.122;5.420;2023-12-20T12:00:31;101398.56;;;8.44;92.01
71770;BME280;66386;52.122;5.420;2023-12-20T12:02:58;101395.19;;;8.45;92.56
71770;BME280;66386;52.122;5.420;2023-12-20T12:05:25;101398.53;;;8.47;92.84
71770;BME280;66386;52.122;5.420;2023-12-20T12:07:53;101411.38;;;8.44;92.85
71770;BME280;66386;52.122;5.420;2023-12-20T12:10:19;101407.16;;;8.43;93.08
71770;BME280;66386;52.122;5.420;2023-12-20T12:12:47;101402.06;;;8.39;92.88
71770;BME280;66386;52.122;5.420;2023-12-20T12:15:14;101412.31;;;8.41;93.14
71770;BME280;66386;52.122;5.420;2023-12-20T12:17:41;101427.66;;;8.39;92.26
71770;BME280;66386;52.122;5.420;2023-12-20T12:20:07;101411.47;;;8.39;92.39
71770;BME280;66386;52.122;5.420;2023-12-20T12:22:36;101416.59;;;8.39;92.89
71770;BME280;66386;52.122;5.420;2023-12-20T12:25:10;101420.78;;;8.43;92.34
71770;BME280;66386;52.122;5.420;2023-12-20T12:27:41;101406.25;;;8.45;92.43
71770;BME280;66386;52.122;5.420;2023-12-20T12:30:09;101406.22;;;8.47;92.20
71770;BME280;66386;52.122;5.420;2023-12-20T12:32:36;101386.56;;;8.49;91.97
71770;BME280;66386;52.122;5.420;2023-12-20T12:35:04;101380.56;;;8.50;92.19
71770;BME280;66386;52.122;5.420;2023-12-20T12:37:38;101379.75;;;8.48;91.58
71770;BME280;66386;52.122;5.420;2023-12-20T12:40:16;101379.78;;;8.46;92.08
71770;BME280;66386;52.122;5.420;2023-12-20T12:42:44;101377.22;;;8.46;91.99
71770;BME280;66386;52.122;5.420;2023-12-20T12:45:11;101365.28;;;8.45;92.00
71770;BME280;66386;52.122;5.420;2023-12-20T12:47:38;101361.88;;;8.45;92.40
71770;BME280;66386;52.122;5.420;2023-12-20T12:50:05;101360.16;;;8.44;92.48
71770;BME280;66386;52.122;5.420;2023-12-20T12:52:32;101368.72;;;8.44;92.58
71770;BME280;66386;52.122;5.420;2023-12-20T12:54:58;101358.47;;;8.44;92.55
71770;BME280;66386;52.122;5.420;2023-12-20T12:57:25;101364.41;;;8.46;92.64
71770;BME280;66386;52.122;5.420;2023-12-20T12:59:52;101354.19;;;8.45;92.54
71770;BME280;66386;52.122;5.420;2023-12-20T13:02:19;101355.91;;;8.44;92.62
71770;BME280;66386;52.122;5.420;2023-12-20T13:04:45;101358.47;;;8.44;92.74